North Bay Airport
CYYB : now visible

Airfield :











YOU CAN JOIN US ON...

 
LOGIN :

Register | Disclaimer

   EN    FR    IT 

 









Legend :    VFR   Marginal VFR   IFR   Intensive IFR   Very Intensive IFR
Visi :
Ceiling :
>= 8 km
>= 3000ft
5 to 8 km
1000 to 3000 ft
1500m to 5 km
500 to 1000 ft
800 to 1500m
200 to 500 ft
< 800m
< 200 ft
Symbols :   Thunderstorms  Fog  Heavy snow  Heavy precipitations  Wind > 20 kt






- Airport Elevation : 1215 ft
- IATA code : YYB


CYYB - North Bay

METAR N/A
TAF TAF CYYB
Valid from the 14 at 14:00 until the 15 at 02:00 UTC


141339Z 1414/1502 20012G22KT 11/2SM -SHSN OVC008
TEMPO 1414/1416 6SM -SHSN SCT008 OVC015
FM141600 24012G22KT 6SM -SHSN SCT020 OVC030
TEMPO 1416/1502 2SM -SHSN BKN020 OVC030
PROB40 1416/1418 11/2SM -SHSN OVC015 RMK NXT FCST BY 142000Z



MET'MAP, your aeronautical weather chart ! - Copyright ORBIFLY December 2007 - Disclaimer

ORBIFLY MET'MAP TEAM :

Programming & Development : Alexandra Zaïnal
Concept & Development : Baudouin d'Aumeries
Co-Development & Prog : Marc-Olivier Méhu
Technical & hardware support : Manuel Goepfert

Contact : metmap@orbifly.com




SOURCES & CREDITS :

   NOAA       Earth
Advisory